Decoded Metar for KCKM ( in ) (IATA:) | Meteo·Mobile Aviation Weather
aviador You're here:

KCKM Decoded Metar

in
Report Time2018-10-20 12:35:00
UTC Time2018-10-20 12:50:17
Flight Rules vfr VFR
Wind350° at 05 kt
W.Decomp.*RWY 36: 4.9 kt HW 0.9 kt LCW
W.Rank350° ranks 6
Current wind is below 350° avg. (9.2)
Visibility9999 m
Phenomena:N/A
Clouds:Few 009 Hf
Scattered 033 Hf
Overcast 065 Hf
Ceiling6,500 ft
Temp14°C
Dew Point14°C (100% RH)
AAT13.5°C
QNH1021 hPa
Raw Report
KCKM 201235Z AUTO 35005KT 9SM FEW009 SCT033 OVC065 14/14 A3014 RMK
A01=

Extra information for KCKM:More info

Social comments